Time;durP1;ratioP1;P1;durP2;ratioP2;P2;SDS_P1;SDS_P2;PMS_P1;PMS_P2;Temp;Humidity;BMP_temperature;BMP_pressure;BME280_temperature;BME280_humidity;BME280_pressure;Samples;Min_cycle;Max_cycle;Signal;HPM_P1;HPM_P2
2022/10/18 00:00:56;;;;;;;11.77;8.02;;;;;;;14.55;100.00;102358.19;5029807;28;20108;-73
2022/10/18 00:03:22;;;;;;;10.73;8.00;;;;;;;14.54;100.00;102354.63;5031216;28;20028;-72
2022/10/18 00:05:48;;;;;;;10.40;7.53;;;;;;;14.56;100.00;102359.88;5021891;28;20038;-71
2022/10/18 00:08:14;;;;;;;13.73;8.27;;;;;;;14.56;100.00;102359.88;5028585;28;20037;-72
2022/10/18 00:10:40;;;;;;;16.00;8.68;;;;;;;14.56;100.00;102354.44;5030724;28;20026;-71
2022/10/18 00:13:05;;;;;;;11.50;8.52;;;;;;;14.52;100.00;102354.03;5032073;28;20013;-74
2022/10/18 00:15:30;;;;;;;10.27;8.73;;;;;;;14.55;100.00;102352.75;5032164;28;20100;-72
2022/10/18 00:17:56;;;;;;;10.38;7.90;;;;;;;14.55;100.00;102347.28;5030948;28;20029;-71
2022/10/18 00:20:21;;;;;;;14.02;8.65;;;;;;;14.55;100.00;102352.75;5031044;28;20028;-71
2022/10/18 00:22:46;;;;;;;12.57;8.55;;;;;;;14.52;100.00;102355.91;5032224;28;20024;-71
2022/10/18 00:25:12;;;;;;;14.23;8.52;;;;;;;14.54;100.00;102353.81;5018852;28;20025;-73
2022/10/18 00:27:37;;;;;;;11.48;8.80;;;;;;;14.53;100.00;102354.84;5018767;28;20022;-72
2022/10/18 00:30:04;;;;;;;13.13;8.93;;;;;;;14.52;100.00;102353.16;5031937;28;20032;-73
2022/10/18 00:32:29;;;;;;;9.73;8.13;;;;;;;14.50;100.00;102349.84;5032435;28;20033;-71
2022/10/18 00:34:54;;;;;;;11.85;8.77;;;;;;;14.51;100.00;102351.53;5031966;28;20025;-73
2022/10/18 00:37:19;;;;;;;14.80;9.10;;;;;;;14.51;100.00;102340.63;5031070;28;20180;-71
2022/10/18 00:39:45;;;;;;;12.50;8.55;;;;;;;14.52;100.00;102345.84;5032171;28;20033;-72
2022/10/18 00:42:16;;;;;;;10.75;8.10;;;;;;;14.52;100.00;102347.72;5034470;28;20029;-71
2022/10/18 00:44:41;;;;;;;13.55;8.57;;;;;;;14.50;100.00;102355.28;5035498;28;20097;-71
2022/10/18 00:47:09;;;;;;;14.40;8.73;;;;;;;14.50;100.00;102355.28;5026005;28;20041;-73
2022/10/18 00:49:41;;;;;;;13.57;8.73;;;;;;;14.48;100.00;102352.78;5015386;28;20342;-73
2022/10/18 00:52:17;;;;;;;14.30;8.30;;;;;;;14.47;100.00;102358.44;5015661;28;20101;-72
2022/10/18 00:54:44;;;;;;;15.27;8.90;;;;;;;14.47;100.00;102350.28;5015606;28;20080;-71
2022/10/18 00:57:11;;;;;;;12.85;8.60;;;;;;;14.46;100.00;102359.47;5022062;28;20029;-73
2022/10/18 00:59:36;;;;;;;11.13;8.55;;;;;;;14.46;100.00;102359.47;5035512;28;20033;-73
2022/10/18 01:02:02;;;;;;;12.77;8.13;;;;;;;14.46;100.00;102364.94;5032798;28;20033;-73
2022/10/18 01:04:27;;;;;;;13.13;9.40;;;;;;;14.45;100.00;102364.09;5033907;28;20029;-72
2022/10/18 01:07:18;;;;;;;17.00;8.55;;;;;;;14.49;100.00;102369.94;5013011;28;20029;-72
2022/10/18 01:10:12;;;;;;;14.93;8.80;;;;;;;14.48;100.00;102368.28;5015688;28;20036;-72
2022/10/18 01:12:52;;;;;;;13.27;8.85;;;;;;;14.47;100.00;102381.06;5019324;28;20071;-70
2022/10/18 01:15:30;;;;;;;13.00;7.90;;;;;;;14.48;100.00;102379.19;5038121;28;20022;-70
2022/10/18 01:18:24;;;;;;;14.63;8.60;;;;;;;14.47;100.00;102378.34;5038312;28;20091;-70
2022/10/18 01:21:16;;;;;;;14.07;9.68;;;;;;;14.46;100.00;102376.69;5034817;28;20033;-72
2022/10/18 01:24:25;;;;;;;11.73;7.97;;;;;;;14.47;100.00;102370.16;5029946;28;20025;-73
2022/10/18 01:27:07;;;;;;;16.83;8.98;;;;;;;14.42;100.00;102364.53;5017872;28;20041;-70
2022/10/18 01:30:10;;;;;;;17.17;9.00;;;;;;;14.43;100.00;102371.66;5034889;28;20400;-72
2022/10/18 01:32:40;;;;;;;19.10;9.20;;;;;;;14.41;100.00;102368.28;5033550;28;20029;-71
2022/10/18 01:35:11;;;;;;;12.48;8.40;;;;;;;14.41;100.00;102375.63;5034541;28;20048;-70
2022/10/18 01:37:39;;;;;;;11.30;8.23;;;;;;;14.38;100.00;102367.91;5024558;28;20033;-71
2022/10/18 01:40:07;;;;;;;14.35;8.65;;;;;;;14.39;100.00;102375.84;5034474;28;20527;-71
2022/10/18 01:42:33;;;;;;;11.40;8.57;;;;;;;14.37;100.00;102377.94;5034669;28;20026;-72
2022/10/18 01:45:02;;;;;;;11.48;8.07;;;;;;;14.35;100.00;102380.03;5032702;28;20025;-70
2022/10/18 01:47:27;;;;;;;11.75;7.75;;;;;;;14.36;100.00;102374.38;5022078;28;20123;-71
2022/10/18 01:50:01;;;;;;;11.50;9.00;;;;;;;14.37;100.00;102375.22;5034358;28;20104;-72
2022/10/18 01:52:26;;;;;;;14.35;9.20;;;;;;;14.34;100.00;102370.19;5034095;28;20461;-72
2022/10/18 01:54:54;;;;;;;10.90;8.15;;;;;;;14.32;100.00;102370.41;5033914;28;20036;-70
2022/10/18 01:57:19;;;;;;;10.60;8.40;;;;;;;14.33;100.00;102380.25;5026688;28;20147;-71
2022/10/18 02:00:00;;;;;;;11.23;8.60;;;;;;;14.30;100.00;102377.97;5014638;28;20417;-72
2022/10/18 02:02:53;;;;;;;13.80;9.13;;;;;;;14.31;100.00;102379.63;5012028;28;20026;-70
2022/10/18 02:05:31;;;;;;;13.68;8.90;;;;;;;14.26;100.00;102371.25;5014129;28;20076;-73
2022/10/18 02:08:21;;;;;;;18.25;8.57;;;;;;;14.28;100.00;102379.22;5025283;28;20033;-73
2022/10/18 02:10:53;;;;;;;18.85;9.40;;;;;;;14.22;100.00;102371.91;5033872;28;20060;-72
2022/10/18 02:13:22;;;;;;;13.38;9.07;;;;;;;14.24;100.00;102384.25;5034114;28;20037;-72
2022/10/18 02:15:53;;;;;;;11.73;8.85;;;;;;;14.24;100.00;102381.53;5033832;28;20026;-72
2022/10/18 02:18:24;;;;;;;15.32;9.10;;;;;;;14.24;100.00;102370.66;5028359;28;20038;-70
2022/10/18 02:20:50;;;;;;;13.07;8.73;;;;;;;14.23;100.00;102371.69;5014224;28;20025;-70
2022/10/18 02:23:20;;;;;;;13.30;8.70;;;;;;;14.18;100.00;102374.22;5013509;28;20025;-72
2022/10/18 02:25:46;;;;;;;13.07;8.45;;;;;;;14.20;100.00;102374.00;5010215;28;20139;-70
2022/10/18 02:28:11;;;;;;;11.38;8.70;;;;;;;14.21;100.00;102379.25;5012917;28;20042;-72
2022/10/18 02:30:46;;;;;;;12.88;8.48;;;;;;;14.19;100.00;102381.31;5013983;28;20076;-72
2022/10/18 02:33:35;;;;;;;14.07;7.72;;;;;;;14.22;100.00;102386.38;5014017;28;20107;-71
2022/10/18 02:36:11;;;;;;;12.05;8.52;;;;;;;14.16;100.00;102384.47;5024799;28;20041;-71
2022/10/18 02:38:38;;;;;;;10.40;8.30;;;;;;;14.12;100.00;102385.94;5033747;28;20026;-72
2022/10/18 02:41:03;;;;;;;13.73;8.90;;;;;;;14.15;100.00;102388.25;5033629;28;20029;-71
2022/10/18 02:43:29;;;;;;;9.43;7.97;;;;;;;14.11;100.00;102395.16;5025220;28;20526;-71
2022/10/18 02:45:54;;;;;;;13.07;8.25;;;;;;;14.12;100.00;102392.22;5027265;28;20377;-70
2022/10/18 02:48:19;;;;;;;11.10;8.40;;;;;;;14.10;100.00;102393.47;5033463;28;20021;-71
2022/10/18 02:50:45;;;;;;;15.77;8.20;;;;;;;14.11;100.00;102389.72;5033387;28;20025;-72
2022/10/18 02:53:10;;;;;;;13.48;8.63;;;;;;;14.10;100.00;102388.03;5033458;28;20029;-70
2022/10/18 02:55:35;;;;;;;12.82;8.00;;;;;;;14.09;100.00;102392.66;5021166;28;20061;-72
2022/10/18 02:58:00;;;;;;;13.40;9.13;;;;;;;14.06;100.00;102386.81;5013339;28;20032;-72
2022/10/18 03:00:26;;;;;;;18.48;9.88;;;;;;;14.07;100.00;102383.00;5011458;28;20037;-71
2022/10/18 03:02:52;;;;;;;14.93;8.65;;;;;;;14.08;100.00;102379.25;5011492;28;20021;-72
2022/10/18 03:05:18;;;;;;;12.82;8.75;;;;;;;14.08;100.00;102381.97;5019666;28;20025;-70
2022/10/18 03:07:43;;;;;;;11.25;8.80;;;;;;;14.08;100.00;102384.69;5033136;28;20472;-71
2022/10/18 03:10:08;;;;;;;12.75;9.20;;;;;;;14.06;100.00;102387.63;5032724;28;20018;-72
2022/10/18 03:12:34;;;;;;;14.30;8.77;;;;;;;14.09;100.00;102389.09;5033107;28;20025;-73
2022/10/18 03:14:59;;;;;;;15.57;9.25;;;;;;;14.06;100.00;102397.69;5030752;28;20025;-72
2022/10/18 03:17:24;;;;;;;13.75;9.55;;;;;;;14.08;100.00;102385.53;5033048;28;20107;-71
2022/10/18 03:19:49;;;;;;;12.18;9.45;;;;;;;14.10;100.00;102382.59;5031697;28;20100;-73
2022/10/18 03:22:15;;;;;;;16.23;9.27;;;;;;;14.06;100.00;102384.06;5027402;28;20022;-70
2022/10/18 03:24:40;;;;;;;14.45;9.98;;;;;;;14.04;100.00;102386.16;5019795;28;20033;-72
2022/10/18 03:27:05;;;;;;;17.20;11.43;;;;;;;14.05;100.00;102393.28;5014494;28;20046;-71
2022/10/18 03:29:31;;;;;;;16.48;10.55;;;;;;;14.05;100.00;102402.28;5013130;28;20056;-73
2022/10/18 03:31:56;;;;;;;14.15;10.18;;;;;;;14.07;100.00;102404.78;5012384;28;20053;-71
2022/10/18 03:34:21;;;;;;;16.17;10.10;;;;;;;14.05;100.00;102396.00;5013021;28;20032;-71
2022/10/18 03:36:46;;;;;;;15.30;10.57;;;;;;;14.07;100.00;102393.91;5013297;28;20156;-73
2022/10/18 03:39:12;;;;;;;15.18;10.60;;;;;;;14.04;100.00;102384.28;5011554;28;20032;-72
2022/10/18 03:41:37;;;;;;;15.90;10.75;;;;;;;14.04;100.00;102399.75;5012271;28;20025;-72
2022/10/18 03:44:02;;;;;;;15.85;11.43;;;;;;;14.02;100.00;102393.69;5012693;28;20034;-73
2022/10/18 03:46:28;;;;;;;16.50;10.45;;;;;;;14.02;100.00;102399.16;5012900;28;20025;-74
2022/10/18 03:48:53;;;;;;;18.85;11.48;;;;;;;13.99;100.00;102384.91;5019558;28;20029;-74
2022/10/18 03:51:18;;;;;;;12.85;10.90;;;;;;;14.01;100.00;102382.00;5012925;28;20045;-72
2022/10/18 03:53:44;;;;;;;15.57;10.98;;;;;;;14.03;100.00;102387.22;5029210;28;20453;-73
2022/10/18 03:56:09;;;;;;;14.55;10.63;;;;;;;14.00;100.00;102377.59;5016623;28;20030;-70
2022/10/18 03:58:35;;;;;;;13.82;10.10;;;;;;;13.96;100.00;102374.44;5030286;28;20096;-71
2022/10/18 04:01:00;;;;;;;15.57;10.30;;;;;;;13.95;100.00;102375.50;5015912;28;20030;-70
2022/10/18 04:03:25;;;;;;;11.48;10.15;;;;;;;13.94;100.00;102379.25;5028460;28;20476;-70
2022/10/18 04:05:51;;;;;;;15.35;10.50;;;;;;;13.94;100.00;102379.25;5014757;28;20032;-72
2022/10/18 04:08:17;;;;;;;15.07;10.00;;;;;;;13.91;100.00;102382.41;5012451;28;20026;-70
2022/10/18 04:10:43;;;;;;;11.32;10.02;;;;;;;13.88;100.00;102377.38;5030036;28;20033;-70
2022/10/18 04:13:08;;;;;;;16.58;9.65;;;;;;;13.88;100.00;102374.66;5020197;28;20033;-70
2022/10/18 04:15:33;;;;;;;12.13;9.93;;;;;;;13.82;100.00;102375.50;5012655;28;20068;-69
2022/10/18 04:17:59;;;;;;;12.85;9.90;;;;;;;13.83;100.00;102374.47;5014907;28;20371;-69
2022/10/18 04:20:25;;;;;;;11.57;9.20;;;;;;;13.86;100.00;102376.75;5022983;28;20029;-70
2022/10/18 04:22:51;;;;;;;14.05;10.23;;;;;;;13.81;100.00;102376.53;5024067;28;20033;-70
2022/10/18 04:25:17;;;;;;;16.42;9.75;;;;;;;13.81;100.00;102384.69;5020838;28;20017;-72
2022/10/18 04:27:43;;;;;;;13.60;9.70;;;;;;;13.81;100.00;102384.69;5035092;28;20021;-70
2022/10/18 04:30:08;;;;;;;11.82;10.13;;;;;;;13.78;100.00;102380.53;5035427;28;20060;-72
2022/10/18 04:32:34;;;;;;;13.80;9.55;;;;;;;13.74;100.00;102392.00;5033850;28;20465;-71
2022/10/18 04:35:04;;;;;;;16.10;9.77;;;;;;;13.73;100.00;102393.91;5035518;28;20409;-71
2022/10/18 04:37:29;;;;;;;12.52;9.07;;;;;;;13.73;100.00;102383.03;5032769;28;20052;-70
2022/10/18 04:39:54;;;;;;;12.35;9.35;;;;;;;13.70;100.00;102399.75;5040238;28;20063;-70
2022/10/18 04:42:21;;;;;;;12.57;10.38;;;;;;;13.66;100.00;102409.38;5036751;28;20025;-71
2022/10/18 04:44:46;;;;;;;15.15;11.18;;;;;;;13.64;100.00;102393.25;5028959;28;20030;-71
2022/10/18 04:47:11;;;;;;;12.23;10.38;;;;;;;13.66;100.00;102387.63;5028784;28;20033;-71
2022/10/18 04:49:37;;;;;;;13.55;10.15;;;;;;;13.69;100.00;102389.91;5034335;28;20028;-71
2022/10/18 04:52:02;;;;;;;14.05;9.43;;;;;;;13.64;100.00;102395.97;5015629;28;20056;-70
2022/10/18 04:54:28;;;;;;;15.45;10.45;;;;;;;13.59;100.00;102401.22;5016030;28;20026;-71
2022/10/18 04:56:53;;;;;;;15.88;9.95;;;;;;;13.63;100.00;102407.06;5016004;28;20029;-72
2022/10/18 04:59:19;;;;;;;13.07;10.35;;;;;;;13.58;100.00;102402.25;5015631;28;20431;-73
2022/10/18 05:01:44;;;;;;;16.92;11.18;;;;;;;13.62;100.00;102402.69;5013033;28;20024;-73
2022/10/18 05:04:09;;;;;;;14.05;10.40;;;;;;;13.58;100.00;102406.88;5030054;28;20029;-75
2022/10/18 05:06:35;;;;;;;11.85;10.55;;;;;;;13.57;100.00;102395.16;5020859;28;20030;-74
2022/10/18 05:09:00;;;;;;;17.85;11.30;;;;;;;13.57;100.00;102403.31;5015512;28;20029;-71
2022/10/18 05:11:25;;;;;;;14.15;11.23;;;;;;;13.52;100.00;102397.66;5014789;28;20445;-71
2022/10/18 05:13:51;;;;;;;15.38;11.65;;;;;;;13.52;100.00;102396.81;5050428;28;20025;-72
2022/10/18 05:16:16;;;;;;;16.38;11.88;;;;;;;13.52;100.00;102407.69;5035099;28;20025;-71
2022/10/18 05:18:42;;;;;;;17.45;11.27;;;;;;;13.56;100.00;102412.50;5033922;28;20108;-71
2022/10/18 05:21:07;;;;;;;15.48;11.93;;;;;;;13.57;100.00;102414.19;5029288;28;20442;-71
2022/10/18 05:23:33;;;;;;;14.07;10.43;;;;;;;13.56;100.00;102412.50;5014750;28;20056;-71
2022/10/18 05:26:02;;;;;;;14.30;11.98;;;;;;;13.53;100.00;102421.09;5015027;28;20050;-72
2022/10/18 05:28:28;;;;;;;18.23;11.70;;;;;;;13.53;100.00;102421.09;5013786;28;20517;-71
2022/10/18 05:30:53;;;;;;;15.20;11.13;;;;;;;13.51;100.00;102412.28;5013891;28;20110;-70
2022/10/18 05:33:18;;;;;;;13.95;11.23;;;;;;;13.52;100.00;102419.41;5029376;28;20073;-72
2022/10/18 05:35:44;;;;;;;16.92;11.50;;;;;;;13.48;100.00;102420.84;5035147;28;20033;-72
2022/10/18 05:38:09;;;;;;;15.70;11.70;;;;;;;13.50;100.00;102423.38;5034657;28;20105;-70
2022/10/18 05:40:37;;;;;;;18.13;12.13;;;;;;;13.44;100.00;102419.59;5034740;28;20460;-71
2022/10/18 05:43:03;;;;;;;27.65;13.45;;;;;;;13.47;100.00;102417.31;5029448;28;20022;-71
2022/10/18 05:45:28;;;;;;;41.20;14.52;;;;;;;13.48;100.00;102415.41;5022451;28;20028;-72
2022/10/18 05:47:53;;;;;;;39.85;14.38;;;;;;;13.49;100.00;102414.38;5013323;28;20030;-71
2022/10/18 05:50:19;;;;;;;26.95;13.38;;;;;;;13.47;100.00;102414.59;5014472;28;20029;-70
2022/10/18 05:52:44;;;;;;;37.05;13.70;;;;;;;13.46;100.00;102420.22;5014690;28;20028;-73
2022/10/18 05:55:09;;;;;;;72.88;14.70;;;;;;;13.42;100.00;102424.41;5017247;28;20121;-72
2022/10/18 05:57:35;;;;;;;77.05;14.15;;;;;;;13.40;100.00;102427.31;5014612;28;20026;-74
2022/10/18 06:00:00;;;;;;;47.00;13.50;;;;;;;13.42;100.00;102427.13;5013304;28;20025;-72
2022/10/18 06:02:25;;;;;;;58.28;13.80;;;;;;;13.39;100.00;102427.53;5011790;28;20017;-71
2022/10/18 06:04:51;;;;;;;71.45;13.30;;;;;;;13.37;100.00;102437.78;5017039;28;20021;-72
2022/10/18 06:07:16;;;;;;;32.92;12.75;;;;;;;13.38;100.00;102439.47;5020418;28;20057;-71
2022/10/18 06:09:41;;;;;;;31.60;12.55;;;;;;;13.35;100.00;102437.16;5014850;28;20030;-71
2022/10/18 06:12:07;;;;;;;27.92;12.55;;;;;;;13.38;100.00;102439.47;5014140;28;20433;-71
2022/10/18 06:14:33;;;;;;;54.75;13.05;;;;;;;13.37;100.00;102441.31;5014278;28;20113;-71
2022/10/18 06:16:58;;;;;;;81.25;13.65;;;;;;;13.36;100.00;102447.81;5014051;28;20113;-71
2022/10/18 06:19:24;;;;;;;44.35;12.43;;;;;;;13.28;100.00;102445.25;5026824;28;20461;-71
2022/10/18 06:21:49;;;;;;;39.25;12.48;;;;;;;13.26;100.00;102437.28;5032670;28;20033;-71
2022/10/18 06:24:14;;;;;;;54.53;12.65;;;;;;;13.24;100.00;102450.25;5029619;28;20022;-71
2022/10/18 06:26:39;;;;;;;59.60;14.25;;;;;;;13.24;100.00;102450.25;5012551;28;20439;-71
2022/10/18 06:29:05;;;;;;;31.20;13.38;;;;;;;13.28;100.00;102450.69;5013834;28;20029;-71
2022/10/18 06:31:30;;;;;;;30.67;12.85;;;;;;;13.26;100.00;102448.16;5014269;28;20151;-71
2022/10/18 06:34:05;;;;;;;31.38;12.70;;;;;;;13.29;100.00;102463.25;5013530;28;20141;-71
2022/10/18 06:36:30;;;;;;;41.63;12.23;;;;;;;13.26;100.00;102461.75;5032148;28;20026;-72
2022/10/18 06:38:56;;;;;;;44.17;12.95;;;;;;;13.22;100.00;102468.63;5033208;28;20033;-71
2022/10/18 06:41:22;;;;;;;51.38;14.52;;;;;;;13.23;100.00;102470.31;5013225;28;20437;-72
2022/10/18 06:43:52;;;;;;;39.25;13.07;;;;;;;13.25;100.00;102467.41;5013762;28;20040;-71
2022/10/18 06:46:18;;;;;;;72.03;12.88;;;;;;;13.22;100.00;102460.47;5013624;28;20045;-72
2022/10/18 06:48:44;;;;;;;45.33;11.85;;;;;;;13.18;100.00;102456.50;5013931;28;20449;-72
2022/10/18 06:51:10;;;;;;;49.88;12.50;;;;;;;13.18;100.00;102464.66;5027469;28;20037;-72
2022/10/18 06:53:37;;;;;;;47.20;12.63;;;;;;;13.18;100.00;102470.09;5013256;28;20025;-72
2022/10/18 06:56:11;;;;;;;40.42;12.60;;;;;;;13.14;100.00;102482.41;5013586;28;20026;-71
2022/10/18 06:58:36;;;;;;;36.10;11.93;;;;;;;13.14;100.00;102493.28;5028743;28;20022;-72
2022/10/18 07:01:10;;;;;;;40.20;12.93;;;;;;;13.11;100.00;102497.25;5022148;28;20056;-71
2022/10/18 07:03:35;;;;;;;45.28;11.98;;;;;;;13.16;100.00;102495.81;5013475;28;20384;-72
2022/10/18 07:06:05;;;;;;;33.58;13.27;;;;;;;13.12;100.00;102500.81;5013427;28;20018;-72
2022/10/18 07:08:31;;;;;;;25.98;12.57;;;;;;;13.11;100.00;102494.53;5013404;28;20029;-72
2022/10/18 07:10:57;;;;;;;31.30;12.73;;;;;;;13.08;100.00;102496.81;5015425;28;20033;-71
2022/10/18 07:13:24;;;;;;;23.17;11.98;;;;;;;13.06;100.00;102507.88;5028298;28;20554;-73
2022/10/18 07:16:01;;;;;;;25.38;12.52;;;;;;;13.06;100.00;102520.66;5013257;28;20369;-72
2022/10/18 07:18:26;;;;;;;18.80;12.40;;;;;;;13.08;100.00;102513.94;5013093;28;20030;-71
2022/10/18 07:20:52;;;;;;;32.75;13.43;;;;;;;13.11;100.00;102512.72;5013027;28;20040;-71
2022/10/18 07:23:19;;;;;;;41.30;14.00;;;;;;;13.13;100.00;102513.34;5012848;28;20080;-72
2022/10/18 07:25:45;;;;;;;57.72;14.60;;;;;;;13.15;100.00;102516.72;5039571;28;20056;-72
2022/10/18 07:28:11;;;;;;;55.33;14.07;;;;;;;13.11;100.00;102520.88;5038504;28;20042;-72
2022/10/18 07:30:36;;;;;;;57.28;14.82;;;;;;;13.13;100.00;102532.38;5030103;28;20029;-71
2022/10/18 07:33:01;;;;;;;84.53;15.45;;;;;;;13.13;100.00;102535.09;5031303;28;20473;-71
2022/10/18 07:35:27;;;;;;;60.35;16.00;;;;;;;13.16;100.00;102536.56;5032917;28;20029;-72
2022/10/18 07:37:52;;;;;;;38.65;16.17;;;;;;;13.20;100.00;102541.41;5032420;28;20080;-72
2022/10/18 07:40:17;;;;;;;48.85;15.80;;;;;;;13.19;100.00;102545.16;5023505;28;20037;-72
2022/10/18 07:42:42;;;;;;;57.30;18.15;;;;;;;13.19;100.00;102550.59;5013201;28;20034;-72
2022/10/18 07:45:09;;;;;;;57.90;16.33;;;;;;;13.19;100.00;102555.19;5011427;28;20445;-72
2022/10/18 07:47:34;;;;;;;58.53;16.90;;;;;;;13.19;100.00;102560.63;5013009;28;20026;-71
2022/10/18 07:49:59;;;;;;;47.13;19.48;;;;;;;13.19;100.00;102572.34;5012638;28;20117;-72
2022/10/18 07:52:25;;;;;;;42.35;18.05;;;;;;;13.20;100.00;102573.19;5018332;28;20026;-72
2022/10/18 07:54:50;;;;;;;48.67;19.08;;;;;;;13.23;100.00;102579.06;5018333;28;20025;-72
2022/10/18 07:57:15;;;;;;;38.75;19.20;;;;;;;13.24;100.00;102575.31;5017517;28;20065;-72
2022/10/18 07:59:43;;;;;;;32.30;19.55;;;;;;;13.28;100.00;102582.00;5020523;28;20022;-72
2022/10/18 08:02:09;;;;;;;41.45;20.17;;;;;;;13.28;100.00;102584.72;5035159;28;20030;-71
2022/10/18 08:04:34;;;;;;;43.33;20.42;;;;;;;13.32;100.00;102587.06;5038748;28;20024;-72
2022/10/18 08:06:59;;;;;;;32.50;20.23;;;;;;;13.40;100.00;102589.66;5039199;28;20047;-72
2022/10/18 08:09:25;;;;;;;35.25;20.90;;;;;;;13.41;100.00;102600.31;5038696;28;20037;-72
2022/10/18 08:11:50;;;;;;;43.78;22.75;;;;;;;13.49;100.00;102601.19;5034064;28;20025;-72
2022/10/18 08:14:15;;;;;;;34.58;20.77;;;;;;;13.54;100.00;102602.28;5038630;28;20041;-71
2022/10/18 08:16:41;;;;;;;36.33;21.58;;;;;;;13.61;100.00;102608.56;5037496;28;20399;-72
2022/10/18 08:19:06;;;;;;;33.92;20.30;;;;;;;13.61;100.00;102602.31;5038939;28;20026;-71
2022/10/18 08:21:31;;;;;;;34.47;19.58;;;;;;;13.62;100.00;102602.09;5037281;28;20401;-72
2022/10/18 08:23:56;;;;;;;33.40;19.05;;;;;;;13.61;100.00;102608.56;5038695;28;20021;-71
2022/10/18 08:26:22;;;;;;;31.48;18.88;;;;;;;13.63;100.00;102625.53;5037235;28;20128;-71
2022/10/18 08:28:49;;;;;;;31.73;19.15;;;;;;;13.58;100.00;102619.84;5038726;28;20033;-72
2022/10/18 08:31:17;;;;;;;33.70;19.45;;;;;;;13.59;100.00;102620.72;5037460;28;20033;-71
2022/10/18 08:33:43;;;;;;;32.03;19.05;;;;;;;13.62;100.00;102632.03;5035655;28;20025;-72
2022/10/18 08:36:12;;;;;;;30.40;20.17;;;;;;;13.68;100.00;102630.38;5033056;28;20041;-71
2022/10/18 08:38:39;;;;;;;33.40;19.85;;;;;;;13.67;100.00;102630.59;5019023;28;20480;-72
2022/10/18 08:41:36;;;;;;;32.67;19.48;;;;;;;13.72;100.00;102633.53;5030223;28;20033;-71
2022/10/18 08:44:16;;;;;;;36.63;19.98;;;;;;;13.75;100.00;102633.13;5038675;28;20021;-72
2022/10/18 08:46:45;;;;;;;30.98;18.20;;;;;;;13.72;100.00;102631.63;5039021;28;20459;-72
2022/10/18 08:49:21;;;;;;;32.20;18.35;;;;;;;13.75;100.00;102624.94;5038692;28;20083;-71
2022/10/18 08:51:49;;;;;;;30.48;18.67;;;;;;;13.75;100.00;102630.41;5019616;28;20026;-72
2022/10/18 08:54:17;;;;;;;30.25;18.05;;;;;;;13.76;100.00;102635.63;5018241;28;20022;-71
2022/10/18 08:56:48;;;;;;;32.55;18.00;;;;;;;13.78;100.00;102635.44;5018663;28;20036;-72
2022/10/18 08:59:13;;;;;;;32.13;17.10;;;;;;;13.80;100.00;102636.09;5018466;28;20096;-71
2022/10/18 09:01:47;;;;;;;26.30;16.95;;;;;;;13.79;100.00;102643.38;5015640;28;20417;-71
2022/10/18 09:04:34;;;;;;;37.40;17.52;;;;;;;13.82;100.00;102650.31;5015139;28;20057;-72
2022/10/18 09:07:23;;;;;;;29.40;17.95;;;;;;;13.84;100.00;102634.63;5015485;28;20481;-71
2022/10/18 09:10:25;;;;;;;29.45;17.63;;;;;;;13.85;100.00;102630.03;5028270;28;20048;-72
2022/10/18 09:13:24;;;;;;;33.35;17.70;;;;;;;13.89;100.00;102637.59;5035746;28;20029;-72
2022/10/18 09:16:05;;;;;;;27.95;16.75;;;;;;;13.93;100.00;102638.84;5032721;28;20116;-71
2022/10/18 09:18:56;;;;;;;26.13;17.50;;;;;;;13.99;100.00;102640.78;5024296;28;20075;-72
2022/10/18 09:21:53;;;;;;;30.15;18.40;;;;;;;14.04;100.00;102644.75;5035087;28;20028;-72
2022/10/18 09:24:26;;;;;;;30.90;17.48;;;;;;;14.09;100.00;102642.25;5034622;28;20037;-72
2022/10/18 09:26:57;;;;;;;33.70;16.95;;;;;;;14.12;100.00;102639.13;5034721;28;20037;-72
2022/10/18 09:29:52;;;;;;;24.83;16.40;;;;;;;14.13;100.00;102643.50;5029178;28;20026;-72
2022/10/18 09:32:32;;;;;;;26.45;15.13;;;;;;;14.15;100.00;102636.81;5013708;28;20026;-71
2022/10/18 09:35:04;;;;;;;29.38;16.33;;;;;;;14.13;100.00;102630.75;5015189;28;20032;-71
2022/10/18 09:37:33;;;;;;;29.92;16.08;;;;;;;14.24;100.00;102636.66;5012728;28;20022;-72
2022/10/18 09:40:14;;;;;;;30.88;18.35;;;;;;;14.27;100.00;102644.41;5033678;28;20074;-71
2022/10/18 09:42:49;;;;;;;33.95;17.05;;;;;;;14.28;100.00;102643.34;5034651;28;20496;-71
2022/10/18 09:45:24;;;;;;;25.75;15.38;;;;;;;14.35;100.00;102647.75;5034409;28;20116;-72
2022/10/18 09:47:55;;;;;;;27.08;14.88;;;;;;;14.42;100.00;102641.47;5033292;28;20074;-71
2022/10/18 09:50:44;;;;;;;26.35;14.32;;;;;;;14.49;100.00;102650.50;5034198;28;20080;-71
2022/10/18 09:53:11;;;;;;;24.88;13.48;;;;;;;14.49;100.00;102659.53;5034217;28;20033;-71
2022/10/18 09:55:45;;;;;;;26.15;13.80;;;;;;;14.52;100.00;102650.94;5032975;28;20029;-71
2022/10/18 09:58:13;;;;;;;27.50;12.93;;;;;;;14.58;100.00;102654.72;5027450;28;20087;-72
2022/10/18 10:00:47;;;;;;;25.15;14.38;;;;;;;14.59;100.00;102653.66;5011098;28;20084;-71
2022/10/18 10:03:13;;;;;;;21.15;12.18;;;;;;;14.61;100.00;102640.69;5014267;28;20033;-71
2022/10/18 10:05:39;;;;;;;21.02;12.30;;;;;;;14.66;100.00;102640.94;5022958;28;20041;-71
2022/10/18 10:08:05;;;;;;;27.95;13.38;;;;;;;14.66;100.00;102642.78;5019239;28;20036;-71
2022/10/18 10:10:31;;;;;;;25.45;11.30;;;;;;;14.65;100.00;102647.41;5012952;28;20117;-71
2022/10/18 10:13:23;;;;;;;20.70;10.20;;;;;;;14.74;100.00;102644.50;5014364;28;20025;-71
2022/10/18 10:15:58;;;;;;;25.88;12.00;;;;;;;14.79;100.00;102642.81;5013643;28;20117;-71
2022/10/18 10:18:28;;;;;;;24.77;10.65;;;;;;;14.80;100.00;102644.50;5013845;28;20104;-72
2022/10/18 10:20:58;;;;;;;22.15;9.25;;;;;;;14.85;100.00;102639.25;5014538;28;20026;-72
2022/10/18 10:23:34;;;;;;;18.30;9.00;;;;;;;14.88;100.00;102635.25;5031838;28;20029;-71
2022/10/18 10:26:03;;;;;;;16.90;7.38;;;;;;;14.90;100.00;102649.53;5032294;28;20049;-72
2022/10/18 10:28:47;;;;;;;18.75;7.15;;;;;;;14.97;100.00;102650.34;5033787;28;20071;-71
2022/10/18 10:31:23;;;;;;;23.88;8.55;;;;;;;14.98;100.00;102649.31;5034124;28;20029;-71
2022/10/18 10:34:16;;;;;;;20.73;8.85;;;;;;;14.99;100.00;102647.41;5032315;28;20396;-71
2022/10/18 10:36:49;;;;;;;22.48;9.43;;;;;;;15.10;100.00;102657.69;5033378;28;20033;-72
2022/10/18 10:39:18;;;;;;;18.90;8.82;;;;;;;15.10;100.00;102663.16;5033522;28;20025;-71
2022/10/18 10:41:48;;;;;;;21.08;8.15;;;;;;;15.12;100.00;102666.50;5033493;28;20041;-71
2022/10/18 10:44:19;;;;;;;20.02;6.30;;;;;;;15.18;100.00;102671.09;5016654;28;20038;-72
2022/10/18 10:46:47;;;;;;;18.48;6.32;;;;;;;15.18;100.00;102673.84;5013658;28;20364;-71
2022/10/18 10:49:19;;;;;;;17.23;6.65;;;;;;;15.24;100.00;102672.16;5013815;28;20457;-72
2022/10/18 10:51:45;;;;;;;18.60;8.27;;;;;;;15.31;100.00;102678.44;5038022;28;20025;-71
2022/10/18 10:54:20;;;;;;;19.98;8.90;;;;;;;15.37;100.00;102676.78;5033626;28;20091;-72
2022/10/18 10:57:00;;;;;;;19.23;8.95;;;;;;;15.40;100.00;102677.16;5013909;28;20021;-70
2022/10/18 10:59:29;;;;;;;19.92;7.65;;;;;;;15.44;100.00;102677.56;5012795;28;20445;-70
2022/10/18 11:02:16;;;;;;;22.50;7.82;;;;;;;15.52;100.00;102684.69;5011262;28;20052;-70
2022/10/18 11:04:43;;;;;;;18.65;6.90;;;;;;;15.56;100.00;102675.03;5011839;28;20026;-70
2022/10/18 11:07:24;;;;;;;15.32;6.22;;;;;;;15.56;100.00;102675.84;5014023;28;20037;-70
2022/10/18 11:09:49;;;;;;;16.92;4.55;;;;;;;15.62;100.00;102682.34;5013756;28;20048;-70
2022/10/18 11:12:44;;;;;;;14.67;4.17;;;;;;;15.69;100.00;102685.09;5019308;28;20450;-73
2022/10/18 11:15:12;;;;;;;11.75;3.75;;;;;;;15.70;100.00;102679.41;5025701;28;20315;-69